Montrose, Colorado
Current Conditions -  °F | °C
As of 2:53 AM on Friday 19 Dec 2014 (Local Time) from KMTJ Reporting Station
Overcast Overcast  
Wind Chill: 32°   Ceiling: 3600
Heat Index: 32°   Visibility: 8mi
Dew Point: 30°   Wind: 0mph
Humidity: 92%   Direction: NA
Pressure: 30.2"   Gusts: NA
Location:  38.48°N, 107.87°W
Report Text: KMTJ 190953Z AUTO 00000KT 8SM OVC036 00/M01 A3020 RMK AO2 SLP221 T00001011
Loading
Personal Weather Stations






























Interactive Weather Map New forecast layout! Learn more

10-Day Weather Forecast

Advertisements
Track Severe Weather on mobile